sensor_id;sensor_type;location;lat;lon;timestamp;temperature;humidity
70271;SHT31;57680;54.292;18.598;2023-03-11T00:01:03;-0.34;98.29
70271;SHT31;57680;54.292;18.598;2023-03-11T00:03:29;-0.37;98.29
70271;SHT31;57680;54.292;18.598;2023-03-11T00:05:55;-0.37;98.24
70271;SHT31;57680;54.292;18.598;2023-03-11T00:08:23;-0.37;98.22
70271;SHT31;57680;54.292;18.598;2023-03-11T00:10:54;-0.37;98.31
70271;SHT31;57680;54.292;18.598;2023-03-11T00:13:20;-0.37;98.34
70271;SHT31;57680;54.292;18.598;2023-03-11T00:15:48;-0.36;98.30
70271;SHT31;57680;54.292;18.598;2023-03-11T00:18:14;-0.34;98.24
70271;SHT31;57680;54.292;18.598;2023-03-11T00:20:43;-0.38;98.17
70271;SHT31;57680;54.292;18.598;2023-03-11T00:23:11;-0.41;98.20
70271;SHT31;57680;54.292;18.598;2023-03-11T00:25:37;-0.37;98.28
70271;SHT31;57680;54.292;18.598;2023-03-11T00:28:04;-0.41;98.33
70271;SHT31;57680;54.292;18.598;2023-03-11T00:30:30;-0.41;98.41
70271;SHT31;57680;54.292;18.598;2023-03-11T00:32:57;-0.31;98.15
70271;SHT31;57680;54.292;18.598;2023-03-11T00:35:28;-0.34;98.19
70271;SHT31;57680;54.292;18.598;2023-03-11T00:37:56;-0.33;98.42
70271;SHT31;57680;54.292;18.598;2023-03-11T00:40:24;-0.37;98.26
70271;SHT31;57680;54.292;18.598;2023-03-11T00:42:51;-0.29;98.05
70271;SHT31;57680;54.292;18.598;2023-03-11T00:45:16;-0.31;98.09
70271;SHT31;57680;54.292;18.598;2023-03-11T00:47:42;-0.36;98.01
70271;SHT31;57680;54.292;18.598;2023-03-11T00:50:08;-0.38;98.22
70271;SHT31;57680;54.292;18.598;2023-03-11T00:52:34;-0.41;98.31
70271;SHT31;57680;54.292;18.598;2023-03-11T00:54:59;-0.41;98.18
70271;SHT31;57680;54.292;18.598;2023-03-11T00:57:25;-0.31;98.17
70271;SHT31;57680;54.292;18.598;2023-03-11T00:59:50;-0.36;97.76
70271;SHT31;57680;54.292;18.598;2023-03-11T01:02:16;-0.37;98.01
70271;SHT31;57680;54.292;18.598;2023-03-11T01:04:41;-0.37;97.89
70271;SHT31;57680;54.292;18.598;2023-03-11T01:07:07;-0.36;97.94
70271;SHT31;57680;54.292;18.598;2023-03-11T01:09:33;-0.41;98.09
70271;SHT31;57680;54.292;18.598;2023-03-11T01:11:58;-0.41;98.12
70271;SHT31;57680;54.292;18.598;2023-03-11T01:14:24;-0.37;98.14
70271;SHT31;57680;54.292;18.598;2023-03-11T01:16:49;-0.43;98.23
70271;SHT31;57680;54.292;18.598;2023-03-11T01:19:15;-0.36;98.38
70271;SHT31;57680;54.292;18.598;2023-03-11T01:21:40;-0.40;97.98
70271;SHT31;57680;54.292;18.598;2023-03-11T01:24:06;-0.37;97.66
70271;SHT31;57680;54.292;18.598;2023-03-11T01:26:31;-0.41;97.83
70271;SHT31;57680;54.292;18.598;2023-03-11T01:28:56;-0.43;97.94
70271;SHT31;57680;54.292;18.598;2023-03-11T01:31:22;-0.45;97.82
70271;SHT31;57680;54.292;18.598;2023-03-11T01:33:47;-0.44;97.88
70271;SHT31;57680;54.292;18.598;2023-03-11T01:36:13;-0.41;97.74
70271;SHT31;57680;54.292;18.598;2023-03-11T01:38:38;-0.36;97.70
70271;SHT31;57680;54.292;18.598;2023-03-11T01:41:04;-0.41;97.58
70271;SHT31;57680;54.292;18.598;2023-03-11T01:43:38;-0.45;97.66
70271;SHT31;57680;54.292;18.598;2023-03-11T01:46:08;-0.40;97.47
70271;SHT31;57680;54.292;18.598;2023-03-11T01:48:33;-0.43;97.60
70271;SHT31;57680;54.292;18.598;2023-03-11T01:50:59;-0.40;97.31
70271;SHT31;57680;54.292;18.598;2023-03-11T01:53:25;-0.41;97.26
70271;SHT31;57680;54.292;18.598;2023-03-11T01:55:51;-0.43;97.02
70271;SHT31;57680;54.292;18.598;2023-03-11T01:58:20;-0.40;97.16
70271;SHT31;57680;54.292;18.598;2023-03-11T02:00:47;-0.43;97.12
70271;SHT31;57680;54.292;18.598;2023-03-11T02:03:27;-0.38;97.06
70271;SHT31;57680;54.292;18.598;2023-03-11T02:05:54;-0.37;97.00
70271;SHT31;57680;54.292;18.598;2023-03-11T02:08:21;-0.47;96.93
70271;SHT31;57680;54.292;18.598;2023-03-11T02:10:47;-0.44;96.93
70271;SHT31;57680;54.292;18.598;2023-03-11T02:13:14;-0.40;96.75
70271;SHT31;57680;54.292;18.598;2023-03-11T02:15:40;-0.41;96.71
70271;SHT31;57680;54.292;18.598;2023-03-11T02:18:07;-0.36;96.49
70271;SHT31;57680;54.292;18.598;2023-03-11T02:21:02;-0.44;96.52
70271;SHT31;57680;54.292;18.598;2023-03-11T02:23:57;-0.40;96.45
70271;SHT31;57680;54.292;18.598;2023-03-11T02:26:31;-0.38;96.36
70271;SHT31;57680;54.292;18.598;2023-03-11T02:29:00;-0.44;96.60
70271;SHT31;57680;54.292;18.598;2023-03-11T02:31:27;-0.43;96.66
70271;SHT31;57680;54.292;18.598;2023-03-11T02:33:55;-0.40;96.65
70271;SHT31;57680;54.292;18.598;2023-03-11T02:36:32;-0.38;96.63
70271;SHT31;57680;54.292;18.598;2023-03-11T02:38:58;-0.37;96.65
70271;SHT31;57680;54.292;18.598;2023-03-11T02:41:24;-0.36;96.93
70271;SHT31;57680;54.292;18.598;2023-03-11T02:43:50;-0.36;96.91
70271;SHT31;57680;54.292;18.598;2023-03-11T02:46:16;-0.36;97.04
70271;SHT31;57680;54.292;18.598;2023-03-11T02:48:43;-0.33;96.83
70271;SHT31;57680;54.292;18.598;2023-03-11T02:51:08;-0.26;96.87
70271;SHT31;57680;54.292;18.598;2023-03-11T02:53:38;-0.24;96.38
70271;SHT31;57680;54.292;18.598;2023-03-11T02:56:05;-0.19;96.44
70271;SHT31;57680;54.292;18.598;2023-03-11T02:58:31;-0.19;96.54
70271;SHT31;57680;54.292;18.598;2023-03-11T03:00:56;-0.23;96.60
70271;SHT31;57680;54.292;18.598;2023-03-11T03:03:23;-0.24;96.70
70271;SHT31;57680;54.292;18.598;2023-03-11T03:05:48;-0.21;96.51
70271;SHT31;57680;54.292;18.598;2023-03-11T03:08:14;-0.26;96.46
70271;SHT31;57680;54.292;18.598;2023-03-11T03:10:39;-0.29;96.51
70271;SHT31;57680;54.292;18.598;2023-03-11T03:13:05;-0.21;96.38
70271;SHT31;57680;54.292;18.598;2023-03-11T03:15:30;-0.19;96.39
70271;SHT31;57680;54.292;18.598;2023-03-11T03:17:56;-0.24;96.49
70271;SHT31;57680;54.292;18.598;2023-03-11T03:20:21;-0.24;96.64
70271;SHT31;57680;54.292;18.598;2023-03-11T03:22:47;-0.21;96.59
70271;SHT31;57680;54.292;18.598;2023-03-11T03:25:13;-0.26;96.44
70271;SHT31;57680;54.292;18.598;2023-03-11T03:27:38;-0.27;96.44
70271;SHT31;57680;54.292;18.598;2023-03-11T03:30:05;-0.31;96.73
70271;SHT31;57680;54.292;18.598;2023-03-11T03:32:31;-0.33;96.68
70271;SHT31;57680;54.292;18.598;2023-03-11T03:34:57;-0.30;96.68
70271;SHT31;57680;54.292;18.598;2023-03-11T03:37:22;-0.36;96.85
70271;SHT31;57680;54.292;18.598;2023-03-11T03:39:47;-0.33;96.89
70271;SHT31;57680;54.292;18.598;2023-03-11T03:42:13;-0.33;96.99
70271;SHT31;57680;54.292;18.598;2023-03-11T03:44:38;-0.29;96.66
70271;SHT31;57680;54.292;18.598;2023-03-11T03:47:04;-0.30;96.64
70271;SHT31;57680;54.292;18.598;2023-03-11T03:49:30;-0.23;96.51
70271;SHT31;57680;54.292;18.598;2023-03-11T03:51:55;-0.26;96.38
70271;SHT31;57680;54.292;18.598;2023-03-11T03:54:21;-0.29;96.26
70271;SHT31;57680;54.292;18.598;2023-03-11T03:56:46;-0.29;96.36
70271;SHT31;57680;54.292;18.598;2023-03-11T03:59:12;-0.30;96.30
70271;SHT31;57680;54.292;18.598;2023-03-11T04:01:37;-0.31;96.22
70271;SHT31;57680;54.292;18.598;2023-03-11T04:04:02;-0.31;96.43
70271;SHT31;57680;54.292;18.598;2023-03-11T04:06:28;-0.34;96.35
70271;SHT31;57680;54.292;18.598;2023-03-11T04:08:54;-0.37;96.57
70271;SHT31;57680;54.292;18.598;2023-03-11T04:11:20;-0.31;96.59
70271;SHT31;57680;54.292;18.598;2023-03-11T04:13:46;-0.33;96.43
70271;SHT31;57680;54.292;18.598;2023-03-11T04:16:16;-0.36;96.28
70271;SHT31;57680;54.292;18.598;2023-03-11T04:18:42;-0.29;95.84
70271;SHT31;57680;54.292;18.598;2023-03-11T04:21:08;-0.31;95.76
70271;SHT31;57680;54.292;18.598;2023-03-11T04:23:33;-0.31;95.80
70271;SHT31;57680;54.292;18.598;2023-03-11T04:25:59;-0.33;95.95
70271;SHT31;57680;54.292;18.598;2023-03-11T04:28:25;-0.36;96.22
70271;SHT31;57680;54.292;18.598;2023-03-11T04:30:50;-0.40;96.00
70271;SHT31;57680;54.292;18.598;2023-03-11T04:33:16;-0.36;95.84
70271;SHT31;57680;54.292;18.598;2023-03-11T04:35:41;-0.36;95.30
70271;SHT31;57680;54.292;18.598;2023-03-11T04:38:06;-0.40;95.46
70271;SHT31;57680;54.292;18.598;2023-03-11T04:40:32;-0.43;95.34
70271;SHT31;57680;54.292;18.598;2023-03-11T04:42:57;-0.37;95.34
70271;SHT31;57680;54.292;18.598;2023-03-11T04:45:23;-0.41;95.02
70271;SHT31;57680;54.292;18.598;2023-03-11T04:47:49;-0.47;95.43
70271;SHT31;57680;54.292;18.598;2023-03-11T04:50:15;-0.47;95.67
70271;SHT31;57680;54.292;18.598;2023-03-11T04:52:41;-0.47;95.79
70271;SHT31;57680;54.292;18.598;2023-03-11T04:55:07;-0.47;95.67
70271;SHT31;57680;54.292;18.598;2023-03-11T04:57:33;-0.45;95.36
70271;SHT31;57680;54.292;18.598;2023-03-11T04:59:58;-0.36;94.84
70271;SHT31;57680;54.292;18.598;2023-03-11T05:02:24;-0.41;94.53
70271;SHT31;57680;54.292;18.598;2023-03-11T05:04:50;-0.37;94.82
70271;SHT31;57680;54.292;18.598;2023-03-11T05:07:15;-0.40;94.87
70271;SHT31;57680;54.292;18.598;2023-03-11T05:09:41;-0.40;94.89
70271;SHT31;57680;54.292;18.598;2023-03-11T05:12:06;-0.45;94.92
70271;SHT31;57680;54.292;18.598;2023-03-11T05:14:32;-0.43;94.87
70271;SHT31;57680;54.292;18.598;2023-03-11T05:16:57;-0.40;94.37
70271;SHT31;57680;54.292;18.598;2023-03-11T05:19:22;-0.41;94.25
70271;SHT31;57680;54.292;18.598;2023-03-11T05:21:48;-0.40;94.12
70271;SHT31;57680;54.292;18.598;2023-03-11T05:24:15;-0.30;93.32
70271;SHT31;57680;54.292;18.598;2023-03-11T05:26:40;-0.21;93.19
70271;SHT31;57680;54.292;18.598;2023-03-11T05:29:05;-0.23;92.33
70271;SHT31;57680;54.292;18.598;2023-03-11T05:31:31;-0.17;91.63
70271;SHT31;57680;54.292;18.598;2023-03-11T05:33:56;-0.20;91.77
70271;SHT31;57680;54.292;18.598;2023-03-11T05:36:22;-0.23;92.02
70271;SHT31;57680;54.292;18.598;2023-03-11T05:38:47;-0.21;91.95
70271;SHT31;57680;54.292;18.598;2023-03-11T05:41:13;-0.23;91.73
70271;SHT31;57680;54.292;18.598;2023-03-11T05:43:39;-0.23;91.32
70271;SHT31;57680;54.292;18.598;2023-03-11T05:46:04;-0.16;90.69
70271;SHT31;57680;54.292;18.598;2023-03-11T05:48:30;-0.16;90.25
70271;SHT31;57680;54.292;18.598;2023-03-11T05:50:55;-0.16;89.95
70271;SHT31;57680;54.292;18.598;2023-03-11T05:53:21;-0.13;89.77
70271;SHT31;57680;54.292;18.598;2023-03-11T05:55:57;-0.13;90.07
70271;SHT31;57680;54.292;18.598;2023-03-11T05:58:23;-0.19;90.08
70271;SHT31;57680;54.292;18.598;2023-03-11T06:00:48;-0.23;90.62
70271;SHT31;57680;54.292;18.598;2023-03-11T06:03:14;-0.21;90.83
70271;SHT31;57680;54.292;18.598;2023-03-11T06:05:47;-0.21;90.84
70271;SHT31;57680;54.292;18.598;2023-03-11T06:08:12;-0.17;90.37
70271;SHT31;57680;54.292;18.598;2023-03-11T06:10:38;-0.17;90.22
70271;SHT31;57680;54.292;18.598;2023-03-11T06:13:04;-0.10;90.01
70271;SHT31;57680;54.292;18.598;2023-03-11T06:15:31;-0.07;89.68
70271;SHT31;57680;54.292;18.598;2023-03-11T06:17:57;-0.10;89.57
70271;SHT31;57680;54.292;18.598;2023-03-11T06:20:22;-0.09;89.64
70271;SHT31;57680;54.292;18.598;2023-03-11T06:22:48;-0.16;89.87
70271;SHT31;57680;54.292;18.598;2023-03-11T06:25:13;-0.14;90.42
70271;SHT31;57680;54.292;18.598;2023-03-11T06:27:39;-0.09;90.31
70271;SHT31;57680;54.292;18.598;2023-03-11T06:30:05;-0.07;90.11
70271;SHT31;57680;54.292;18.598;2023-03-11T06:32:30;-0.14;90.00
70271;SHT31;57680;54.292;18.598;2023-03-11T06:34:56;-0.06;89.14
70271;SHT31;57680;54.292;18.598;2023-03-11T06:37:21;-0.03;89.09
70271;SHT31;57680;54.292;18.598;2023-03-11T06:39:51;0.00;88.95
70271;SHT31;57680;54.292;18.598;2023-03-11T06:42:16;-0.03;89.00
70271;SHT31;57680;54.292;18.598;2023-03-11T06:44:42;-0.02;89.10
70271;SHT31;57680;54.292;18.598;2023-03-11T06:47:07;-0.03;88.86
70271;SHT31;57680;54.292;18.598;2023-03-11T06:49:33;-0.03;88.91
70271;SHT31;57680;54.292;18.598;2023-03-11T06:51:58;-0.06;88.86
70271;SHT31;57680;54.292;18.598;2023-03-11T06:54:23;-0.06;88.69
70271;SHT31;57680;54.292;18.598;2023-03-11T06:56:49;-0.07;88.64
70271;SHT31;57680;54.292;18.598;2023-03-11T06:59:15;-0.07;87.86
70271;SHT31;57680;54.292;18.598;2023-03-11T07:01:40;0.02;87.27
70271;SHT31;57680;54.292;18.598;2023-03-11T07:04:06;0.01;87.71
70271;SHT31;57680;54.292;18.598;2023-03-11T07:06:31;0.00;87.61
70271;SHT31;57680;54.292;18.598;2023-03-11T07:08:57;-0.03;87.67
70271;SHT31;57680;54.292;18.598;2023-03-11T07:11:24;-0.03;87.59
70271;SHT31;57680;54.292;18.598;2023-03-11T07:13:50;-0.03;87.78
70271;SHT31;57680;54.292;18.598;2023-03-11T07:16:19;-0.05;87.46
70271;SHT31;57680;54.292;18.598;2023-03-11T07:18:46;-0.06;87.84
70271;SHT31;57680;54.292;18.598;2023-03-11T07:21:14;-0.09;87.76
70271;SHT31;57680;54.292;18.598;2023-03-11T07:23:40;-0.03;87.13
70271;SHT31;57680;54.292;18.598;2023-03-11T07:26:13;0.02;87.05
70271;SHT31;57680;54.292;18.598;2023-03-11T07:28:40;0.12;86.72
70271;SHT31;57680;54.292;18.598;2023-03-11T07:31:11;0.24;85.75
70271;SHT31;57680;54.292;18.598;2023-03-11T07:33:37;0.33;84.89
70271;SHT31;57680;54.292;18.598;2023-03-11T07:36:07;0.29;85.05
70271;SHT31;57680;54.292;18.598;2023-03-11T07:38:33;0.29;84.80
70271;SHT31;57680;54.292;18.598;2023-03-11T07:40:59;0.31;84.97
70271;SHT31;57680;54.292;18.598;2023-03-11T07:43:25;0.26;84.58
70271;SHT31;57680;54.292;18.598;2023-03-11T07:45:50;0.18;84.69
70271;SHT31;57680;54.292;18.598;2023-03-11T07:48:16;0.22;84.89
70271;SHT31;57680;54.292;18.598;2023-03-11T07:50:42;0.18;84.82
70271;SHT31;57680;54.292;18.598;2023-03-11T07:53:07;0.17;85.17
70271;SHT31;57680;54.292;18.598;2023-03-11T07:55:33;0.25;84.55
70271;SHT31;57680;54.292;18.598;2023-03-11T07:57:58;0.24;84.94
70271;SHT31;57680;54.292;18.598;2023-03-11T08:00:24;0.26;84.71
70271;SHT31;57680;54.292;18.598;2023-03-11T08:02:49;0.26;84.45
70271;SHT31;57680;54.292;18.598;2023-03-11T08:05:15;0.22;84.72
70271;SHT31;57680;54.292;18.598;2023-03-11T08:07:40;0.26;84.19
70271;SHT31;57680;54.292;18.598;2023-03-11T08:10:06;0.24;84.46
70271;SHT31;57680;54.292;18.598;2023-03-11T08:12:32;0.24;84.26
70271;SHT31;57680;54.292;18.598;2023-03-11T08:14:57;0.24;84.37
70271;SHT31;57680;54.292;18.598;2023-03-11T08:17:23;0.29;84.42
70271;SHT31;57680;54.292;18.598;2023-03-11T08:19:48;0.28;83.94
70271;SHT31;57680;54.292;18.598;2023-03-11T08:22:14;0.29;84.13
70271;SHT31;57680;54.292;18.598;2023-03-11T08:24:40;0.28;83.22
70271;SHT31;57680;54.292;18.598;2023-03-11T08:27:05;0.32;83.56
70271;SHT31;57680;54.292;18.598;2023-03-11T08:29:30;0.35;83.46
70271;SHT31;57680;54.292;18.598;2023-03-11T08:31:56;0.39;83.60
70271;SHT31;57680;54.292;18.598;2023-03-11T08:34:22;0.35;83.42
70271;SHT31;57680;54.292;18.598;2023-03-11T08:36:47;0.42;83.63
70271;SHT31;57680;54.292;18.598;2023-03-11T08:39:13;0.46;83.06
70271;SHT31;57680;54.292;18.598;2023-03-11T08:41:38;0.46;83.04
70271;SHT31;57680;54.292;18.598;2023-03-11T08:44:04;0.42;83.25
70271;SHT31;57680;54.292;18.598;2023-03-11T08:46:35;0.42;82.73
70271;SHT31;57680;54.292;18.598;2023-03-11T08:49:02;0.52;82.38
70271;SHT31;57680;54.292;18.598;2023-03-11T08:51:29;0.56;82.42
70271;SHT31;57680;54.292;18.598;2023-03-11T08:53:56;0.58;82.37
70271;SHT31;57680;54.292;18.598;2023-03-11T08:56:22;0.70;82.27
70271;SHT31;57680;54.292;18.598;2023-03-11T08:58:47;0.73;81.91
70271;SHT31;57680;54.292;18.598;2023-03-11T09:01:14;0.73;81.35
70271;SHT31;57680;54.292;18.598;2023-03-11T09:03:40;0.76;81.58
70271;SHT31;57680;54.292;18.598;2023-03-11T09:06:09;0.76;81.16
70271;SHT31;57680;54.292;18.598;2023-03-11T09:08:35;0.75;81.07
70271;SHT31;57680;54.292;18.598;2023-03-11T09:11:01;0.77;81.50
70271;SHT31;57680;54.292;18.598;2023-03-11T09:13:27;0.79;80.78
70271;SHT31;57680;54.292;18.598;2023-03-11T09:15:54;0.81;80.52
70271;SHT31;57680;54.292;18.598;2023-03-11T09:18:19;0.84;80.74
70271;SHT31;57680;54.292;18.598;2023-03-11T09:20:45;0.97;80.93
70271;SHT31;57680;54.292;18.598;2023-03-11T09:23:12;1.00;79.96
70271;SHT31;57680;54.292;18.598;2023-03-11T09:25:38;1.03;79.46
70271;SHT31;57680;54.292;18.598;2023-03-11T09:28:04;1.20;79.77
70271;SHT31;57680;54.292;18.598;2023-03-11T09:30:30;1.31;78.73
70271;SHT31;57680;54.292;18.598;2023-03-11T09:32:55;1.50;78.65
70271;SHT31;57680;54.292;18.598;2023-03-11T09:35:21;1.44;78.08
70271;SHT31;57680;54.292;18.598;2023-03-11T09:37:46;1.26;78.11
70271;SHT31;57680;54.292;18.598;2023-03-11T09:40:16;1.08;79.37
70271;SHT31;57680;54.292;18.598;2023-03-11T09:45:31;0.89;78.78
70271;SHT31;57680;54.292;18.598;2023-03-11T09:53:14;1.20;77.89
70271;SHT31;57680;54.292;18.598;2023-03-11T10:00:44;1.31;76.70
70271;SHT31;57680;54.292;18.598;2023-03-11T10:03:16;1.35;76.75
70271;SHT31;57680;54.292;18.598;2023-03-11T10:05:47;1.51;77.08
70271;SHT31;57680;54.292;18.598;2023-03-11T10:08:28;1.45;76.17
70271;SHT31;57680;54.292;18.598;2023-03-11T10:14:12;1.37;75.69
70271;SHT31;57680;54.292;18.598;2023-03-11T10:27:48;1.21;77.97
70271;SHT31;57680;54.292;18.598;2023-03-11T10:32:47;1.38;76.87
70271;SHT31;57680;54.292;18.598;2023-03-11T10:35:23;1.63;75.69
70271;SHT31;57680;54.292;18.598;2023-03-11T10:37:52;1.78;75.97
70271;SHT31;57680;54.292;18.598;2023-03-11T10:42:44;1.68;75.33
70271;SHT31;57680;54.292;18.598;2023-03-11T10:45:14;1.83;75.08
70271;SHT31;57680;54.292;18.598;2023-03-11T10:47:39;2.07;73.88
70271;SHT31;57680;54.292;18.598;2023-03-11T10:50:05;2.33;73.57
70271;SHT31;57680;54.292;18.598;2023-03-11T10:52:31;2.42;72.09
70271;SHT31;57680;54.292;18.598;2023-03-11T10:55:01;2.40;71.40
70271;SHT31;57680;54.292;18.598;2023-03-11T10:57:36;2.29;70.84
70271;SHT31;57680;54.292;18.598;2023-03-11T11:00:06;2.21;70.49
70271;SHT31;57680;54.292;18.598;2023-03-11T11:02:37;2.00;71.11
70271;SHT31;57680;54.292;18.598;2023-03-11T11:07:45;1.48;72.95
70271;SHT31;57680;54.292;18.598;2023-03-11T11:12:57;1.90;72.96
70271;SHT31;57680;54.292;18.598;2023-03-11T11:15:35;1.87;71.78
70271;SHT31;57680;54.292;18.598;2023-03-11T11:18:03;1.71;72.13
70271;SHT31;57680;54.292;18.598;2023-03-11T11:20:30;1.83;72.64
70271;SHT31;57680;54.292;18.598;2023-03-11T11:22:58;1.90;72.44
70271;SHT31;57680;54.292;18.598;2023-03-11T11:25:28;1.83;72.14
70271;SHT31;57680;54.292;18.598;2023-03-11T11:27:58;1.81;73.06
70271;SHT31;57680;54.292;18.598;2023-03-11T11:30:24;1.71;73.07
70271;SHT31;57680;54.292;18.598;2023-03-11T11:32:50;1.54;73.46
70271;SHT31;57680;54.292;18.598;2023-03-11T11:35:16;1.58;73.81
70271;SHT31;57680;54.292;18.598;2023-03-11T11:37:46;1.72;73.73
70271;SHT31;57680;54.292;18.598;2023-03-11T11:40:16;1.85;72.59
70271;SHT31;57680;54.292;18.598;2023-03-11T11:43:04;1.83;72.40
70271;SHT31;57680;54.292;18.598;2023-03-11T11:45:41;1.71;72.57
70271;SHT31;57680;54.292;18.598;2023-03-11T11:50:50;2.09;71.42
70271;SHT31;57680;54.292;18.598;2023-03-11T11:53:43;2.14;70.12
70271;SHT31;57680;54.292;18.598;2023-03-11T11:56:11;2.27;69.05
70271;SHT31;57680;54.292;18.598;2023-03-11T11:58:38;2.41;69.05
70271;SHT31;57680;54.292;18.598;2023-03-11T12:01:17;2.50;68.80
70271;SHT31;57680;54.292;18.598;2023-03-11T12:04:01;2.70;67.95
70271;SHT31;57680;54.292;18.598;2023-03-11T12:09:25;2.77;64.83
70271;SHT31;57680;54.292;18.598;2023-03-11T12:14:35;2.51;64.63
70271;SHT31;57680;54.292;18.598;2023-03-11T12:17:04;2.19;64.86
70271;SHT31;57680;54.292;18.598;2023-03-11T12:19:52;2.05;66.08
70271;SHT31;57680;54.292;18.598;2023-03-11T12:22:35;1.69;66.64
70271;SHT31;57680;54.292;18.598;2023-03-11T12:25:33;1.66;67.03
70271;SHT31;57680;54.292;18.598;2023-03-11T12:28:14;1.66;68.46
70271;SHT31;57680;54.292;18.598;2023-03-11T12:31:02;1.51;69.44
70271;SHT31;57680;54.292;18.598;2023-03-11T12:36:05;1.41;69.98
70271;SHT31;57680;54.292;18.598;2023-03-11T12:38:33;1.41;70.26
70271;SHT31;57680;54.292;18.598;2023-03-11T12:46:10;1.42;71.45
70271;SHT31;57680;54.292;18.598;2023-03-11T12:48:48;1.47;72.44
70271;SHT31;57680;54.292;18.598;2023-03-11T12:53:55;1.63;71.95
70271;SHT31;57680;54.292;18.598;2023-03-11T12:56:44;1.82;71.86
70271;SHT31;57680;54.292;18.598;2023-03-11T13:04:44;1.79;72.15
70271;SHT31;57680;54.292;18.598;2023-03-11T13:12:44;1.78;73.08
70271;SHT31;57680;54.292;18.598;2023-03-11T13:28:31;1.54;72.83
70271;SHT31;57680;54.292;18.598;2023-03-11T13:31:19;1.71;70.52
70271;SHT31;57680;54.292;18.598;2023-03-11T13:33:51;1.83;69.54
70271;SHT31;57680;54.292;18.598;2023-03-11T13:41:36;1.78;70.70
70271;SHT31;57680;54.292;18.598;2023-03-11T13:44:32;1.63;70.73
70271;SHT31;57680;54.292;18.598;2023-03-11T13:47:17;1.38;70.81
70271;SHT31;57680;54.292;18.598;2023-03-11T13:50:05;1.35;70.87
70271;SHT31;57680;54.292;18.598;2023-03-11T13:52:41;1.44;71.20
70271;SHT31;57680;54.292;18.598;2023-03-11T13:55:20;1.52;71.11
70271;SHT31;57680;54.292;18.598;2023-03-11T13:57:51;1.45;71.29
70271;SHT31;57680;54.292;18.598;2023-03-11T14:00:20;1.50;70.73
70271;SHT31;57680;54.292;18.598;2023-03-11T14:02:48;1.54;70.44
70271;SHT31;57680;54.292;18.598;2023-03-11T14:05:18;1.71;69.64
70271;SHT31;57680;54.292;18.598;2023-03-11T14:07:44;1.78;68.74
70271;SHT31;57680;54.292;18.598;2023-03-11T14:10:27;1.82;68.57
70271;SHT31;57680;54.292;18.598;2023-03-11T14:13:16;1.90;67.26
70271;SHT31;57680;54.292;18.598;2023-03-11T14:15:51;1.96;66.60
70271;SHT31;57680;54.292;18.598;2023-03-11T14:18:35;2.11;66.19
70271;SHT31;57680;54.292;18.598;2023-03-11T14:21:02;2.11;66.19
70271;SHT31;57680;54.292;18.598;2023-03-11T14:23:32;2.09;65.89
70271;SHT31;57680;54.292;18.598;2023-03-11T14:26:33;2.19;64.65
70271;SHT31;57680;54.292;18.598;2023-03-11T14:29:01;2.02;63.20
70271;SHT31;57680;54.292;18.598;2023-03-11T14:34:09;1.89;64.38
70271;SHT31;57680;54.292;18.598;2023-03-11T14:36:54;1.85;63.70
70271;SHT31;57680;54.292;18.598;2023-03-11T14:39:36;1.75;63.42
70271;SHT31;57680;54.292;18.598;2023-03-11T14:42:21;1.69;63.91
70271;SHT31;57680;54.292;18.598;2023-03-11T14:45:10;1.73;62.99
70271;SHT31;57680;54.292;18.598;2023-03-11T14:47:40;1.71;63.16
70271;SHT31;57680;54.292;18.598;2023-03-11T14:50:15;1.59;61.90
70271;SHT31;57680;54.292;18.598;2023-03-11T14:52:44;1.55;61.37
70271;SHT31;57680;54.292;18.598;2023-03-11T14:55:15;1.61;62.77
70271;SHT31;57680;54.292;18.598;2023-03-11T14:57:54;1.69;62.13
70271;SHT31;57680;54.292;18.598;2023-03-11T15:00:26;1.81;62.44
70271;SHT31;57680;54.292;18.598;2023-03-11T15:03:21;1.98;62.10
70271;SHT31;57680;54.292;18.598;2023-03-11T15:05:49;2.10;61.12
70271;SHT31;57680;54.292;18.598;2023-03-11T15:08:20;2.30;61.83
70271;SHT31;57680;54.292;18.598;2023-03-11T15:11:06;2.40;59.11
70271;SHT31;57680;54.292;18.598;2023-03-11T15:13:32;2.38;59.19
70271;SHT31;57680;54.292;18.598;2023-03-11T15:16:00;2.11;59.17
70271;SHT31;57680;54.292;18.598;2023-03-11T15:18:32;1.90;60.41
70271;SHT31;57680;54.292;18.598;2023-03-11T15:23:29;1.51;61.66
70271;SHT31;57680;54.292;18.598;2023-03-11T15:25:54;1.48;62.47
70271;SHT31;57680;54.292;18.598;2023-03-11T15:28:27;1.41;62.05
70271;SHT31;57680;54.292;18.598;2023-03-11T15:33:47;1.30;63.61
70271;SHT31;57680;54.292;18.598;2023-03-11T15:36:38;1.19;64.47
70271;SHT31;57680;54.292;18.598;2023-03-11T15:44:40;0.93;66.31
70271;SHT31;57680;54.292;18.598;2023-03-11T15:47:17;0.99;66.04
70271;SHT31;57680;54.292;18.598;2023-03-11T15:49:43;0.94;66.22
70271;SHT31;57680;54.292;18.598;2023-03-11T15:52:08;0.96;66.42
70271;SHT31;57680;54.292;18.598;2023-03-11T15:54:34;0.87;66.00
70271;SHT31;57680;54.292;18.598;2023-03-11T15:57:04;0.81;66.56
70271;SHT31;57680;54.292;18.598;2023-03-11T15:59:30;0.75;66.93
70271;SHT31;57680;54.292;18.598;2023-03-11T16:01:55;0.60;67.45
70271;SHT31;57680;54.292;18.598;2023-03-11T16:04:21;0.66;67.66
70271;SHT31;57680;54.292;18.598;2023-03-11T16:06:47;0.73;68.33
70271;SHT31;57680;54.292;18.598;2023-03-11T16:09:14;0.79;68.41
70271;SHT31;57680;54.292;18.598;2023-03-11T16:11:41;0.81;68.10
70271;SHT31;57680;54.292;18.598;2023-03-11T16:14:14;0.72;68.54
70271;SHT31;57680;54.292;18.598;2023-03-11T16:16:41;0.63;69.09
70271;SHT31;57680;54.292;18.598;2023-03-11T16:19:06;0.72;68.81
70271;SHT31;57680;54.292;18.598;2023-03-11T16:21:35;0.80;68.82
70271;SHT31;57680;54.292;18.598;2023-03-11T16:24:03;0.63;68.88
70271;SHT31;57680;54.292;18.598;2023-03-11T16:26:30;0.53;69.55
70271;SHT31;57680;54.292;18.598;2023-03-11T16:28:55;0.50;69.71
70271;SHT31;57680;54.292;18.598;2023-03-11T16:31:21;0.45;70.21
70271;SHT31;57680;54.292;18.598;2023-03-11T16:33:46;0.45;70.58
70271;SHT31;57680;54.292;18.598;2023-03-11T16:36:12;0.56;69.63
70271;SHT31;57680;54.292;18.598;2023-03-11T16:38:49;0.41;70.51
70271;SHT31;57680;54.292;18.598;2023-03-11T16:41:15;0.46;70.72
70271;SHT31;57680;54.292;18.598;2023-03-11T16:43:41;0.41;71.13
70271;SHT31;57680;54.292;18.598;2023-03-11T16:46:06;0.28;71.11
70271;SHT31;57680;54.292;18.598;2023-03-11T16:48:32;0.21;71.53
70271;SHT31;57680;54.292;18.598;2023-03-11T16:50:57;0.15;71.81
70271;SHT31;57680;54.292;18.598;2023-03-11T16:53:23;0.07;71.92
70271;SHT31;57680;54.292;18.598;2023-03-11T16:55:48;0.15;72.05
70271;SHT31;57680;54.292;18.598;2023-03-11T16:58:14;0.08;72.01
70271;SHT31;57680;54.292;18.598;2023-03-11T17:00:40;0.11;71.80
70271;SHT31;57680;54.292;18.598;2023-03-11T17:03:05;0.07;72.62
70271;SHT31;57680;54.292;18.598;2023-03-11T17:05:31;0.04;72.88
70271;SHT31;57680;54.292;18.598;2023-03-11T17:07:57;0.11;73.04
70271;SHT31;57680;54.292;18.598;2023-03-11T17:10:22;-0.09;73.47